Time;durP1;ratioP1;P1;durP2;ratioP2;P2;SDS_P1;SDS_P2;PMS_P1;PMS_P2;Temp;Humidity;BMP_temperature;BMP_pressure;BME280_temperature;BME280_humidity;BME280_pressure;Samples;Min_cycle;Max_cycle;Signal;HPM_P1;HPM_P2
2023/10/28 00:00:17;;;;;;;23.80;7.05;;;;;;;22.52;59.32;99438.69;5052149;28;20029;-77
2023/10/28 00:02:45;;;;;;;20.17;6.80;;;;;;;22.46;58.95;99431.38;5052368;28;20090;-78
2023/10/28 00:05:11;;;;;;;32.33;6.80;;;;;;;22.44;59.13;99436.28;5051072;28;20435;-78
2023/10/28 00:07:36;;;;;;;30.02;8.70;;;;;;;22.48;58.96;99447.59;5052053;28;20028;-79
2023/10/28 00:10:02;;;;;;;25.77;5.60;;;;;;;22.43;59.22;99448.28;5057172;28;20043;-78
2023/10/28 00:12:28;;;;;;;25.23;6.93;;;;;;;22.45;59.21;99448.88;5064277;28;20028;-79
2023/10/28 00:14:54;;;;;;;19.73;6.00;;;;;;;22.43;58.75;99448.28;5058508;28;20033;-77
2023/10/28 00:17:19;;;;;;;30.42;6.20;;;;;;;22.27;58.95;99424.25;5052287;28;20112;-79
2023/10/28 00:19:46;;;;;;;28.50;6.82;;;;;;;22.41;58.65;99428.53;5050952;28;20035;-78
2023/10/28 00:22:12;;;;;;;33.83;5.95;;;;;;;22.28;58.81;99405.91;5051848;28;20053;-78
2023/10/28 00:24:38;;;;;;;39.00;5.95;;;;;;;22.46;58.34;99425.91;5051987;28;20491;-78
2023/10/28 00:27:04;;;;;;;33.85;6.43;;;;;;;22.48;58.08;99428.41;5051903;28;20029;-78
2023/10/28 00:29:29;;;;;;;19.60;5.35;;;;;;;22.49;57.50;99430.09;5051650;28;20083;-79
2023/10/28 00:31:55;;;;;;;23.63;5.45;;;;;;;22.41;57.24;99422.19;5052121;28;20040;-77
2023/10/28 00:34:21;;;;;;;22.23;5.63;;;;;;;22.55;56.97;99432.75;5051657;28;20043;-78
2023/10/28 00:36:46;;;;;;;20.35;5.88;;;;;;;22.57;56.77;99444.31;5051766;28;20024;-78
2023/10/28 00:39:13;;;;;;;27.48;5.95;;;;;;;22.60;56.59;99446.59;5051893;28;20028;-78
2023/10/28 00:41:38;;;;;;;26.98;5.57;;;;;;;22.57;56.36;99444.31;5051308;28;20032;-78
2023/10/28 00:44:04;;;;;;;26.13;4.38;;;;;;;22.63;56.43;99451.59;5051603;28;20033;-78
2023/10/28 00:46:30;;;;;;;15.73;5.03;;;;;;;22.63;56.36;99450.75;5051258;28;20048;-79
2023/10/28 00:48:56;;;;;;;18.80;5.22;;;;;;;22.62;56.49;99458.16;5050112;28;20408;-78
2023/10/28 00:51:21;;;;;;;19.75;4.65;;;;;;;22.64;56.16;99467.00;5051383;28;20731;-78
2023/10/28 00:53:47;;;;;;;25.75;7.00;;;;;;;22.53;56.43;99436.78;5049287;28;20080;-76
2023/10/28 00:56:13;;;;;;;33.80;6.35;;;;;;;22.66;56.12;99459.41;5051472;28;20036;-77
2023/10/28 00:58:40;;;;;;;27.13;4.35;;;;;;;22.67;55.74;99452.84;5051395;28;20025;-77
2023/10/28 01:01:08;;;;;;;25.08;5.15;;;;;;;22.64;56.04;99456.03;5051434;28;20111;-77
2023/10/28 01:03:34;;;;;;;21.25;4.85;;;;;;;22.61;55.48;99445.53;5061632;28;20085;-78
2023/10/28 01:05:59;;;;;;;18.92;4.95;;;;;;;22.67;55.30;99461.06;5063225;28;20142;-79
2023/10/28 01:08:25;;;;;;;28.73;5.70;;;;;;;22.64;55.31;99463.41;5051821;28;20079;-77
2023/10/28 01:10:51;;;;;;;24.58;5.60;;;;;;;22.57;55.40;99482.66;5050963;28;20025;-78
2023/10/28 01:13:16;;;;;;;26.42;5.43;;;;;;;22.52;55.13;99468.00;5050793;28;20057;-78
2023/10/28 01:15:42;;;;;;;17.77;4.22;;;;;;;22.56;55.23;99474.69;5051040;28;20090;-76
2023/10/28 01:18:10;;;;;;;16.65;5.35;;;;;;;22.48;55.06;99472.25;5050807;28;20163;-78
2023/10/28 01:20:35;;;;;;;20.48;4.78;;;;;;;22.54;54.73;99474.06;5050885;28;20035;-77
2023/10/28 01:23:01;;;;;;;12.07;4.20;;;;;;;22.48;54.58;99473.09;5064706;28;20471;-76
2023/10/28 01:25:27;;;;;;;26.33;5.22;;;;;;;22.51;54.51;99478.13;5050547;28;20472;-77
2023/10/28 01:27:53;;;;;;;20.23;4.78;;;;;;;22.43;54.58;99464.72;5050509;28;20400;-78
2023/10/28 01:30:18;;;;;;;24.10;5.55;;;;;;;22.45;54.67;99490.00;5050601;28;20021;-78
2023/10/28 01:32:44;;;;;;;24.73;5.82;;;;;;;22.44;54.86;99509.41;5050647;28;20039;-77
2023/10/28 01:35:10;;;;;;;18.92;4.93;;;;;;;22.45;54.59;99500.94;5050278;28;20048;-77
2023/10/28 01:37:39;;;;;;;25.55;6.13;;;;;;;22.45;54.65;99505.59;5050376;28;20059;-77
2023/10/28 01:40:14;;;;;;;21.85;4.95;;;;;;;22.40;54.64;99511.78;5050299;28;20029;-77
2023/10/28 01:42:41;;;;;;;16.45;5.43;;;;;;;22.42;54.67;99511.53;5050222;28;20033;-78
2023/10/28 01:45:09;;;;;;;25.65;5.53;;;;;;;22.39;54.12;99503.75;5050397;28;20027;-77
2023/10/28 01:47:36;;;;;;;19.08;4.88;;;;;;;22.35;54.12;99506.16;5050407;28;20033;-77
2023/10/28 01:50:01;;;;;;;11.93;4.35;;;;;;;22.32;53.97;99503.03;5050908;28;20025;-78
2023/10/28 01:52:28;;;;;;;14.10;4.15;;;;;;;22.31;54.01;99510.41;5050178;28;20035;-77
2023/10/28 01:54:53;;;;;;;17.40;4.55;;;;;;;22.19;53.60;99490.31;5055508;28;20025;-78
2023/10/28 01:57:20;;;;;;;25.65;3.67;;;;;;;22.29;53.60;99512.53;5064727;28;20048;-78
2023/10/28 01:59:45;;;;;;;11.95;4.30;;;;;;;22.24;53.16;99509.63;5057728;28;20098;-78
2023/10/28 02:02:10;;;;;;;20.63;4.35;;;;;;;22.22;53.24;99492.59;5050024;28;20021;-76
2023/10/28 02:04:36;;;;;;;26.10;4.47;;;;;;;22.22;53.01;99498.06;5049950;28;20507;-79
2023/10/28 02:07:04;;;;;;;11.77;3.35;;;;;;;22.16;52.66;99496.25;5049847;28;20484;-78
2023/10/28 02:09:33;;;;;;;24.75;3.97;;;;;;;22.17;52.99;99511.59;5049901;28;20029;-77
2023/10/28 02:12:02;;;;;;;11.55;3.40;;;;;;;22.14;52.71;99504.66;5049983;28;20037;-77
2023/10/28 02:14:28;;;;;;;17.70;3.85;;;;;;;22.17;52.60;99517.06;5049502;28;20025;-78
2023/10/28 02:16:55;;;;;;;23.75;4.45;;;;;;;22.13;52.37;99518.59;5049818;28;20039;-78
2023/10/28 02:19:21;;;;;;;17.70;3.92;;;;;;;22.20;52.32;99516.59;5049887;28;20413;-76
2023/10/28 02:21:48;;;;;;;12.38;3.47;;;;;;;22.14;52.22;99501.09;5049462;28;20055;-77
2023/10/28 02:24:16;;;;;;;14.70;3.58;;;;;;;22.11;52.18;99509.75;5049547;28;20052;-78
2023/10/28 02:26:43;;;;;;;14.00;3.28;;;;;;;22.13;52.17;99519.44;5049678;28;20027;-79
2023/10/28 02:29:09;;;;;;;14.02;3.35;;;;;;;22.17;52.11;99519.81;5049506;28;20455;-77
2023/10/28 02:31:34;;;;;;;12.75;3.80;;;;;;;22.15;52.33;99519.19;5049683;28;20029;-79
2023/10/28 02:34:00;;;;;;;29.48;4.60;;;;;;;22.09;52.25;99520.09;5049376;28;20082;-77
2023/10/28 02:36:26;;;;;;;13.75;3.75;;;;;;;22.06;52.26;99523.28;5064021;28;20047;-79
2023/10/28 02:38:51;;;;;;;17.38;3.72;;;;;;;22.04;52.39;99518.06;5050006;28;20112;-77
2023/10/28 02:41:17;;;;;;;10.20;3.45;;;;;;;22.13;52.11;99530.41;5049846;28;20029;-78
2023/10/28 02:43:42;;;;;;;17.70;3.95;;;;;;;22.05;52.17;99516.13;5049700;28;20060;-78
2023/10/28 02:46:08;;;;;;;23.08;4.10;;;;;;;22.01;52.11;99520.41;5030661;28;20083;-78
2023/10/28 02:48:34;;;;;;;14.48;3.38;;;;;;;21.98;52.27;99515.38;5062241;28;20025;-79
2023/10/28 02:51:06;;;;;;;22.88;4.53;;;;;;;22.04;52.17;99522.69;5063271;28;20083;-79
2023/10/28 02:53:33;;;;;;;13.45;3.13;;;;;;;21.98;52.05;99507.16;5050043;28;20048;-78
2023/10/28 02:56:05;;;;;;;17.02;3.28;;;;;;;22.02;52.06;99524.81;5049550;28;20025;-77
2023/10/28 02:58:31;;;;;;;12.65;3.72;;;;;;;21.85;52.08;99493.56;5049546;28;20107;-78
2023/10/28 03:00:57;;;;;;;13.57;4.05;;;;;;;21.85;52.07;99510.84;5049206;28;20069;-78
2023/10/28 03:03:23;;;;;;;13.90;3.53;;;;;;;22.01;51.83;99526.72;5049169;28;20059;-78
2023/10/28 03:05:49;;;;;;;14.13;2.85;;;;;;;21.98;51.90;99529.06;5049565;28;20033;-78
2023/10/28 03:08:16;;;;;;;13.88;2.53;;;;;;;21.96;51.94;99533.91;5049440;28;20037;-78
2023/10/28 03:10:41;;;;;;;16.73;3.10;;;;;;;21.93;51.65;99539.84;5049362;28;20057;-78
2023/10/28 03:13:07;;;;;;;23.67;3.08;;;;;;;21.87;52.17;99557.13;5049004;28;20064;-78
2023/10/28 03:15:32;;;;;;;14.13;2.95;;;;;;;21.85;52.05;99542.84;5049262;28;20036;-78
2023/10/28 03:17:58;;;;;;;25.45;4.22;;;;;;;21.79;52.12;99538.25;5047857;28;20497;-78
2023/10/28 03:20:23;;;;;;;10.85;2.63;;;;;;;21.76;52.20;99541.44;5049500;28;21143;-78
2023/10/28 03:22:50;;;;;;;17.08;4.07;;;;;;;21.75;52.06;99539.75;5049258;28;20045;-78
2023/10/28 03:25:16;;;;;;;7.00;3.22;;;;;;;21.74;52.14;99554.53;5049990;28;20061;-78
2023/10/28 03:27:42;;;;;;;18.25;3.15;;;;;;;21.74;52.23;99549.91;5052938;28;20132;-77
2023/10/28 03:30:07;;;;;;;10.38;2.90;;;;;;;21.63;52.30;99536.91;5052998;28;20052;-78
2023/10/28 03:32:33;;;;;;;7.38;3.17;;;;;;;21.67;52.37;99560.91;5053223;28;20417;-78
2023/10/28 03:34:59;;;;;;;9.68;3.80;;;;;;;21.68;52.50;99575.38;5053354;28;20036;-76
2023/10/28 03:37:24;;;;;;;7.97;3.22;;;;;;;21.64;52.46;99558.59;5053800;28;20041;-78
2023/10/28 03:39:50;;;;;;;9.00;3.25;;;;;;;21.70;52.53;99576.88;5060525;28;20083;-77
2023/10/28 03:42:15;;;;;;;11.23;3.65;;;;;;;21.68;52.58;99570.75;5068049;28;20080;-78
2023/10/28 03:44:41;;;;;;;16.15;2.83;;;;;;;21.67;52.58;99579.22;5060677;28;20032;-78
2023/10/28 03:47:07;;;;;;;8.77;2.92;;;;;;;21.64;52.70;99574.19;5052774;28;20025;-78
2023/10/28 03:49:33;;;;;;;20.75;3.75;;;;;;;21.58;52.75;99581.38;5052888;28;20040;-78
2023/10/28 03:51:59;;;;;;;14.70;3.42;;;;;;;21.51;52.91;99568.78;5052675;28;20029;-78
2023/10/28 03:54:25;;;;;;;16.38;3.90;;;;;;;21.62;53.03;99581.75;5052356;28;20063;-76
2023/10/28 03:56:50;;;;;;;12.43;3.05;;;;;;;21.55;52.91;99592.78;5052606;28;20118;-76
2023/10/28 03:59:16;;;;;;;11.60;3.25;;;;;;;21.49;52.99;99593.66;5052296;28;20082;-78
2023/10/28 04:01:41;;;;;;;11.07;3.17;;;;;;;21.50;53.28;99600.78;5051920;28;20122;-78
2023/10/28 04:04:07;;;;;;;12.68;4.00;;;;;;;21.47;53.24;99606.69;5051936;28;20024;-78
2023/10/28 04:06:33;;;;;;;8.57;3.35;;;;;;;21.53;53.32;99615.91;5052114;28;20029;-77
2023/10/28 04:08:59;;;;;;;16.73;3.97;;;;;;;21.46;53.52;99621.44;5052057;28;20094;-77
2023/10/28 04:11:25;;;;;;;9.90;3.47;;;;;;;21.53;53.38;99627.69;5052236;28;20572;-77
2023/10/28 04:13:51;;;;;;;36.15;14.60;;;;;;;21.55;53.82;99631.06;5052090;28;20036;-78
2023/10/28 04:16:17;;;;;;;8.73;3.45;;;;;;;21.50;53.51;99627.28;5051792;28;20485;-78
2023/10/28 04:18:43;;;;;;;20.65;3.65;;;;;;;21.51;53.47;99624.34;5051624;28;20159;-80
2023/10/28 04:21:08;;;;;;;7.30;3.00;;;;;;;21.38;53.77;99612.63;5051818;28;20025;-78
2023/10/28 04:23:34;;;;;;;12.68;3.65;;;;;;;21.36;53.84;99612.03;5049258;28;20139;-79
2023/10/28 04:25:59;;;;;;;8.88;3.17;;;;;;;21.34;53.48;99625.94;5052762;28;20723;-81
2023/10/28 04:28:25;;;;;;;15.68;3.50;;;;;;;21.28;54.10;99617.75;5052814;28;20025;-80
2023/10/28 04:30:57;;;;;;;10.23;3.00;;;;;;;21.44;54.03;99648.16;5053125;28;20029;-80
2023/10/28 04:33:23;;;;;;;12.07;3.25;;;;;;;21.40;54.05;99655.16;5088185;28;20029;-82
2023/10/28 04:35:48;;;;;;;18.27;3.20;;;;;;;21.32;54.26;99652.66;5074915;28;20041;-81
2023/10/28 04:38:14;;;;;;;12.13;3.03;;;;;;;21.36;54.25;99664.84;5053494;28;20028;-82
2023/10/28 04:40:40;;;;;;;12.73;3.10;;;;;;;21.34;54.44;99675.19;5052897;28;20040;-81
2023/10/28 04:43:06;;;;;;;11.35;3.25;;;;;;;21.28;54.50;99659.63;5052217;28;20025;-81
2023/10/28 04:45:31;;;;;;;9.40;3.25;;;;;;;21.32;54.33;99673.69;5051463;28;20389;-79
2023/10/28 04:47:57;;;;;;;10.55;3.15;;;;;;;21.33;54.26;99668.00;5051774;28;20099;-78
2023/10/28 04:50:22;;;;;;;18.25;2.88;;;;;;;21.29;54.40;99680.44;5051428;28;20382;-79
2023/10/28 04:52:48;;;;;;;29.70;3.58;;;;;;;21.20;54.26;99675.41;5051886;28;20025;-80
2023/10/28 04:55:14;;;;;;;18.42;3.85;;;;;;;21.17;54.45;99676.69;5049134;28;20481;-84
2023/10/28 04:57:40;;;;;;;17.55;4.97;;;;;;;21.34;54.51;99701.69;5051713;28;20025;-82
2023/10/28 05:00:07;;;;;;;7.63;3.25;;;;;;;21.32;54.48;99703.78;5051742;28;20043;-78
2023/10/28 05:02:34;;;;;;;13.13;3.20;;;;;;;21.30;54.57;99701.28;5052044;28;20040;-80
2023/10/28 05:05:01;;;;;;;18.75;3.55;;;;;;;21.31;54.45;99719.38;5050955;28;20036;-78
2023/10/28 05:07:26;;;;;;;13.15;3.28;;;;;;;21.31;54.84;99721.25;5051136;28;20025;-80
2023/10/28 05:09:52;;;;;;;18.60;3.85;;;;;;;21.32;54.84;99717.44;5050004;28;20128;-79
2023/10/28 05:12:18;;;;;;;12.05;3.95;;;;;;;21.33;54.74;99721.88;5050866;28;20029;-80
2023/10/28 05:14:44;;;;;;;10.60;2.92;;;;;;;21.25;54.87;99705.72;5051960;28;20033;-78
2023/10/28 05:17:10;;;;;;;29.45;3.58;;;;;;;21.43;54.72;99744.16;5051409;28;20032;-79
2023/10/28 05:19:36;;;;;;;16.00;3.20;;;;;;;21.48;54.57;99745.19;5051615;28;20082;-80
2023/10/28 05:22:03;;;;;;;28.77;5.25;;;;;;;21.52;54.51;99749.16;5052998;28;20049;-79
2023/10/28 05:24:29;;;;;;;16.75;3.80;;;;;;;21.37;54.59;99737.66;5059239;28;20033;-81
2023/10/28 05:26:56;;;;;;;20.77;3.92;;;;;;;21.42;54.64;99740.56;5072917;28;20056;-80
2023/10/28 05:29:21;;;;;;;19.85;4.25;;;;;;;21.58;54.62;99761.97;5062300;28;20021;-79
2023/10/28 05:31:47;;;;;;;23.60;3.95;;;;;;;21.45;54.84;99744.75;5051091;28;20470;-81
2023/10/28 05:34:12;;;;;;;10.18;4.80;;;;;;;21.67;54.67;99779.00;5050946;28;20057;-82
2023/10/28 05:36:38;;;;;;;12.98;4.07;;;;;;;21.65;54.55;99784.66;5050530;28;20036;-80
2023/10/28 05:39:04;;;;;;;19.95;4.13;;;;;;;21.68;54.49;99780.66;5050520;28;20055;-80
2023/10/28 05:41:30;;;;;;;28.65;4.93;;;;;;;21.70;54.42;99787.63;5048891;28;20355;-80
2023/10/28 05:43:55;;;;;;;34.03;6.13;;;;;;;21.70;54.75;99787.63;5033573;28;20516;-79
2023/10/28 05:46:22;;;;;;;40.47;6.18;;;;;;;21.56;54.86;99772.28;5031282;28;20036;-81
2023/10/28 05:48:50;;;;;;;51.00;7.10;;;;;;;21.58;54.88;99767.47;5030488;28;20030;-79
2023/10/28 05:51:16;;;;;;;42.85;6.82;;;;;;;21.62;54.76;99768.69;5030542;28;20527;-80
2023/10/28 05:53:41;;;;;;;39.63;6.00;;;;;;;21.78;54.79;99791.16;5030822;28;20025;-81
2023/10/28 05:56:07;;;;;;;25.75;5.80;;;;;;;21.85;54.67;99798.28;5030993;28;20040;-88
2023/10/28 05:58:32;;;;;;;22.60;5.07;;;;;;;21.75;54.66;99773.25;5030976;28;20082;-79
2023/10/28 06:00:59;;;;;;;20.00;4.18;;;;;;;21.89;54.31;99785.03;5030606;28;20030;-81
2023/10/28 06:03:26;;;;;;;25.48;5.35;;;;;;;21.93;54.48;99798.06;5031242;28;20029;-82
2023/10/28 06:05:52;;;;;;;13.35;3.45;;;;;;;21.91;54.19;99805.66;5031290;28;20104;-82
2023/10/28 06:08:18;;;;;;;10.10;4.07;;;;;;;22.02;54.23;99817.81;5030868;28;20104;-78
2023/10/28 06:10:45;;;;;;;26.55;4.30;;;;;;;21.84;54.28;99799.31;5031546;28;20465;-80
2023/10/28 06:13:11;;;;;;;19.05;3.63;;;;;;;21.88;54.22;99794.25;5031244;28;20021;-80
2023/10/28 06:15:37;;;;;;;25.83;5.38;;;;;;;22.03;54.02;99806.66;5031428;28;20118;-79
2023/10/28 06:18:04;;;;;;;11.02;3.75;;;;;;;22.05;53.93;99822.84;5051798;28;20025;-80
2023/10/28 06:20:30;;;;;;;21.67;3.92;;;;;;;22.13;53.77;99819.88;5052229;28;20603;-77
2023/10/28 06:22:56;;;;;;;10.02;3.95;;;;;;;22.11;53.72;99811.84;5041567;28;20136;-79
2023/10/28 06:25:21;;;;;;;25.83;4.40;;;;;;;22.10;53.70;99817.56;5050473;28;20064;-77
2023/10/28 06:27:47;;;;;;;8.95;4.30;;;;;;;22.19;53.77;99835.44;5050531;28;20040;-78
2023/10/28 06:30:14;;;;;;;17.50;3.72;;;;;;;22.18;53.65;99841.97;5049998;28;20033;-79
2023/10/28 06:32:40;;;;;;;21.90;4.80;;;;;;;22.19;53.63;99849.97;5050476;28;20408;-81
2023/10/28 06:35:06;;;;;;;13.32;4.63;;;;;;;22.18;53.62;99852.91;5050221;28;20040;-78
2023/10/28 06:37:31;;;;;;;15.30;3.97;;;;;;;22.24;53.69;99865.72;5050396;28;20084;-80
2023/10/28 06:39:58;;;;;;;17.02;4.30;;;;;;;22.24;53.58;99858.34;5049889;28;20497;-78
2023/10/28 06:42:24;;;;;;;27.48;7.20;;;;;;;22.29;53.76;99852.25;5049905;28;20047;-81
2023/10/28 06:44:50;;;;;;;32.13;5.53;;;;;;;22.35;53.55;99864.22;5050937;28;20484;-81
2023/10/28 06:47:16;;;;;;;13.40;4.60;;;;;;;22.32;53.31;99857.28;5053593;28;20159;-80
2023/10/28 06:49:42;;;;;;;19.60;3.70;;;;;;;22.27;53.19;99853.50;5052591;28;20018;-80
2023/10/28 06:52:08;;;;;;;21.88;4.22;;;;;;;22.41;53.15;99874.28;5052662;28;20036;-81
2023/10/28 06:54:33;;;;;;;14.77;4.70;;;;;;;22.23;53.26;99842.16;5049881;28;20024;-79
2023/10/28 06:56:59;;;;;;;23.08;8.82;;;;;;;22.45;53.29;99870.88;5049301;28;20029;-79
2023/10/28 06:59:25;;;;;;;25.33;6.30;;;;;;;22.35;53.07;99845.03;5051127;28;20037;-79
2023/10/28 07:01:54;;;;;;;30.30;6.68;;;;;;;22.47;52.91;99862.47;5068267;28;20040;-79
2023/10/28 07:04:22;;;;;;;15.95;4.78;;;;;;;22.61;52.74;99867.63;5055322;28;20033;-79
2023/10/28 07:06:49;;;;;;;11.65;3.47;;;;;;;22.63;52.05;99892.91;5054396;28;20036;-77
2023/10/28 07:09:17;;;;;;;20.58;4.65;;;;;;;22.67;51.56;99877.75;5059968;28;20043;-80
2023/10/28 07:11:43;;;;;;;15.18;3.25;;;;;;;22.73;51.68;99882.34;5069300;28;20028;-79
2023/10/28 07:14:08;;;;;;;13.35;4.32;;;;;;;22.81;51.26;99888.63;5061540;28;20029;-80
2023/10/28 07:16:34;;;;;;;15.75;3.45;;;;;;;22.84;51.14;99871.72;5054232;28;20043;-80
2023/10/28 07:18:59;;;;;;;18.40;3.58;;;;;;;22.83;50.58;99853.59;5053523;28;20025;-78
2023/10/28 07:21:25;;;;;;;27.02;3.45;;;;;;;22.96;50.56;99864.47;5053691;28;20063;-79
2023/10/28 07:23:50;;;;;;;16.02;2.97;;;;;;;22.97;50.17;99849.66;5057498;28;20431;-80
2023/10/28 07:26:16;;;;;;;21.58;11.63;;;;;;;23.12;49.82;99859.22;5039138;28;20106;-82
2023/10/28 07:28:41;;;;;;;23.23;4.03;;;;;;;23.19;49.38;99871.00;5053378;28;20028;-80
2023/10/28 07:31:07;;;;;;;10.77;4.20;;;;;;;23.25;48.94;99870.09;5053363;28;20492;-81
2023/10/28 07:33:33;;;;;;;14.02;2.72;;;;;;;23.28;48.69;99863.31;5053731;28;20070;-76
2023/10/28 07:36:02;;;;;;;16.75;2.75;;;;;;;23.42;48.44;99880.53;5055530;28;20469;-78
2023/10/28 07:38:28;;;;;;;9.13;3.00;;;;;;;23.44;47.96;99868.25;5053373;28;20076;-79
2023/10/28 07:40:54;;;;;;;9.90;2.92;;;;;;;23.52;47.20;99876.19;5053514;28;20037;-80
2023/10/28 07:43:19;;;;;;;13.02;3.70;;;;;;;23.65;46.35;99877.97;5052094;28;20036;-81
2023/10/28 07:45:48;;;;;;;11.90;2.42;;;;;;;23.71;45.71;99880.63;5033003;28;20113;-77
2023/10/28 07:48:14;;;;;;;12.68;2.95;;;;;;;23.79;45.17;99882.25;5032469;28;20026;-79
2023/10/28 07:50:43;;;;;;;14.77;2.85;;;;;;;23.92;45.18;99883.97;5032153;28;20090;-81
2023/10/28 07:53:09;;;;;;;10.88;3.17;;;;;;;23.96;44.37;99879.72;5032866;28;20108;-81
2023/10/28 07:55:36;;;;;;;15.07;2.63;;;;;;;24.08;44.30;99877.88;5033452;28;20218;-80
2023/10/28 07:58:03;;;;;;;17.02;2.92;;;;;;;24.11;44.17;99885.69;5032963;28;20068;-80
2023/10/28 08:00:29;;;;;;;11.52;2.40;;;;;;;24.26;43.96;99888.88;5032435;28;20034;-79
2023/10/28 08:02:54;;;;;;;10.02;2.92;;;;;;;24.30;44.68;99879.09;5034272;28;20066;-80
2023/10/28 08:05:20;;;;;;;6.25;3.22;;;;;;;24.46;44.46;99894.97;5036911;28;20040;-79
2023/10/28 08:07:50;;;;;;;17.50;3.03;;;;;;;24.47;43.99;99880.13;5032435;28;20126;-79
2023/10/28 08:10:17;;;;;;;15.20;2.75;;;;;;;24.68;43.71;99887.84;5032600;28;20029;-80
2023/10/28 08:12:43;;;;;;;13.70;3.50;;;;;;;24.82;43.12;99886.63;5033700;28;20026;-81
2023/10/28 08:15:08;;;;;;;14.02;3.45;;;;;;;24.88;42.98;99874.69;5032059;28;20029;-78
2023/10/28 08:17:34;;;;;;;8.98;3.35;;;;;;;25.04;42.65;99875.91;5032466;28;20025;-80
2023/10/28 08:20:00;;;;;;;7.85;2.67;;;;;;;25.07;42.14;99863.59;5031939;28;20517;-79
2023/10/28 08:22:25;;;;;;;4.45;2.33;;;;;;;25.25;41.88;99883.59;5038623;28;20056;-79
2023/10/28 08:24:51;;;;;;;10.15;3.15;;;;;;;25.32;40.28;99867.78;5051114;28;20210;-80
2023/10/28 08:27:17;;;;;;;17.08;2.80;;;;;;;25.49;39.82;99867.94;5051371;28;20098;-80
2023/10/28 08:29:46;;;;;;;30.67;3.65;;;;;;;25.56;39.29;99874.19;5053854;28;20064;-81
2023/10/28 08:32:13;;;;;;;6.75;1.60;;;;;;;25.61;38.97;99868.78;5052308;28;20033;-80
2023/10/28 08:34:38;;;;;;;12.55;2.88;;;;;;;25.82;38.97;99876.41;5052123;28;20031;-81
2023/10/28 08:37:05;;;;;;;13.88;2.30;;;;;;;25.82;37.18;99856.28;5051831;28;20140;-78
2023/10/28 08:39:31;;;;;;;8.52;2.83;;;;;;;26.01;36.60;99888.13;5051614;28;20540;-80
2023/10/28 08:42:05;;;;;;;29.73;3.42;;;;;;;25.92;36.24;99876.66;5052082;28;20032;-81
2023/10/28 08:44:34;;;;;;;8.80;2.63;;;;;;;25.93;36.29;99858.19;5052093;28;20057;-78
2023/10/28 08:47:00;;;;;;;13.63;2.75;;;;;;;26.16;35.55;99896.75;5049027;28;20423;-78
2023/10/28 08:49:27;;;;;;;4.85;2.10;;;;;;;26.22;36.06;99889.41;5051543;28;20095;-77
2023/10/28 08:52:02;;;;;;;10.23;2.13;;;;;;;26.34;35.53;99896.56;5051992;28;20064;-78
2023/10/28 08:54:28;;;;;;;24.35;10.93;;;;;;;26.43;35.25;99897.84;5055763;28;20108;-78
2023/10/28 08:56:59;;;;;;;14.10;2.22;;;;;;;26.45;35.54;99886.59;5055183;28;20032;-80
2023/10/28 08:59:27;;;;;;;13.25;2.53;;;;;;;26.59;35.18;99904.50;5053205;28;20033;-78
2023/10/28 09:01:52;;;;;;;21.35;2.55;;;;;;;26.63;34.97;99900.19;5050788;28;20025;-79
2023/10/28 09:04:21;;;;;;;14.65;3.75;;;;;;;26.69;35.33;99907.47;5050829;28;20029;-79
2023/10/28 09:06:48;;;;;;;11.05;2.45;;;;;;;26.76;35.20;99912.81;5050835;28;20033;-79
2023/10/28 09:09:17;;;;;;;20.38;2.20;;;;;;;26.79;34.97;99907.63;5050591;28;20048;-79
2023/10/28 09:11:43;;;;;;;8.93;2.08;;;;;;;26.83;34.99;99911.63;5050461;28;20051;-79
2023/10/28 09:14:08;;;;;;;11.43;4.47;;;;;;;26.90;35.22;99912.31;5050650;28;20029;-79
2023/10/28 09:16:35;;;;;;;5.82;2.10;;;;;;;26.80;35.34;99890.03;5050413;28;20131;-80
2023/10/28 09:19:04;;;;;;;13.05;2.65;;;;;;;26.94;35.42;99905.19;5050558;28;20029;-80
2023/10/28 09:21:31;;;;;;;18.27;3.03;;;;;;;27.08;35.20;99905.72;5031556;28;20064;-77
2023/10/28 09:24:02;;;;;;;19.77;2.40;;;;;;;26.87;35.00;99868.66;5063161;28;20075;-77
2023/10/28 09:26:28;;;;;;;14.32;2.55;;;;;;;27.18;35.38;99905.91;5049875;28;20040;-76
2023/10/28 09:28:54;;;;;;;20.65;2.70;;;;;;;27.25;35.38;99906.53;5049742;28;20029;-78
2023/10/28 09:31:26;;;;;;;15.82;2.55;;;;;;;27.22;36.03;99892.41;5049944;28;20033;-79
2023/10/28 09:33:52;;;;;;;9.23;2.30;;;;;;;27.27;36.06;99909.06;5050315;28;20021;-78
2023/10/28 09:36:18;;;;;;;11.95;2.42;;;;;;;27.28;36.08;99896.91;5050059;28;20408;-77
2023/10/28 09:38:47;;;;;;;15.70;2.10;;;;;;;27.14;36.21;99881.78;5049584;28;20054;-79
2023/10/28 09:41:13;;;;;;;10.55;2.17;;;;;;;27.34;35.96;99887.63;5050177;28;20036;-78
2023/10/28 09:43:39;;;;;;;7.35;2.28;;;;;;;27.42;35.81;99889.97;5049612;28;20017;-77
2023/10/28 09:46:06;;;;;;;12.40;2.13;;;;;;;27.56;35.63;99886.63;5051753;28;20037;-79
2023/10/28 09:48:38;;;;;;;16.23;2.53;;;;;;;27.63;35.64;99885.63;5057210;28;20021;-79
2023/10/28 09:51:05;;;;;;;15.38;3.13;;;;;;;27.69;35.94;99879.94;5052717;28;20025;-80
2023/10/28 09:53:34;;;;;;;9.55;2.50;;;;;;;27.75;35.97;99876.16;5049871;28;20405;-79
2023/10/28 09:56:04;;;;;;;6.55;2.10;;;;;;;27.67;35.36;99851.72;5049821;28;20028;-80
2023/10/28 09:58:41;;;;;;;16.05;3.70;;;;;;;27.87;35.41;99878.78;5049421;28;20408;-78
2023/10/28 10:01:25;;;;;;;7.80;2.30;;;;;;;27.84;35.09;99880.13;5049979;28;20064;-78
2023/10/28 10:03:56;;;;;;;15.25;2.95;;;;;;;27.86;35.66;99875.19;5048129;28;20013;-82
2023/10/28 10:06:23;;;;;;;5.97;2.53;;;;;;;27.87;35.58;99863.03;5049591;28;20412;-78
2023/10/28 10:08:50;;;;;;;10.05;2.10;;;;;;;27.95;34.86;99870.06;5049720;28;20120;-79
2023/10/28 10:11:26;;;;;;;13.63;2.40;;;;;;;28.07;35.00;99871.63;5049540;28;20032;-79
2023/10/28 10:13:52;;;;;;;12.70;2.63;;;;;;;28.05;35.06;99862.75;5049569;28;20029;-78
2023/10/28 10:16:39;;;;;;;16.65;2.25;;;;;;;28.16;35.24;99879.47;5049498;28;20021;-79
2023/10/28 10:19:10;;;;;;;14.15;2.17;;;;;;;28.21;34.51;99876.78;5049013;28;20489;-81
2023/10/28 10:21:36;;;;;;;15.02;2.50;;;;;;;28.16;34.48;99883.09;5049166;28;20123;-83
2023/10/28 10:24:06;;;;;;;19.58;2.85;;;;;;;28.02;34.57;99867.94;5049258;28;20146;-83
2023/10/28 10:26:34;;;;;;;9.05;2.25;;;;;;;28.19;34.71;99884.50;5049094;28;20029;-80
2023/10/28 10:29:03;;;;;;;8.15;2.42;;;;;;;28.17;34.74;99886.66;5050360;28;20405;-80
2023/10/28 10:31:32;;;;;;;13.55;2.80;;;;;;;28.31;34.33;99882.44;5049063;28;20435;-78
2023/10/28 10:34:08;;;;;;;4.45;2.00;;;;;;;28.28;34.19;99896.78;5048695;28;20067;-80
2023/10/28 10:36:43;;;;;;;8.57;2.33;;;;;;;28.28;34.32;99888.47;5049350;28;20040;-79
2023/10/28 10:39:19;;;;;;;5.63;2.17;;;;;;;28.31;34.55;99893.50;5036584;28;20037;-81
2023/10/28 10:42:07;;;;;;;16.48;3.20;;;;;;;28.32;34.68;99870.25;5067556;28;20029;-80
2023/10/28 10:44:36;;;;;;;5.13;2.13;;;;;;;28.33;34.50;99863.63;5054923;28;20059;-80
2023/10/28 10:47:04;;;;;;;6.45;2.17;;;;;;;28.48;34.65;99894.25;5049565;28;20039;-78
2023/10/28 10:49:31;;;;;;;8.07;2.35;;;;;;;28.41;34.47;99871.47;5049445;28;20033;-80
2023/10/28 10:51:59;;;;;;;15.80;3.38;;;;;;;28.70;34.86;99892.31;5049272;28;20033;-79
2023/10/28 10:54:35;;;;;;;10.98;2.42;;;;;;;28.83;34.45;99886.38;5049531;28;20033;-81
2023/10/28 10:57:02;;;;;;;10.95;2.63;;;;;;;28.92;34.42;99890.31;5049957;28;20032;-80
2023/10/28 10:59:32;;;;;;;12.63;4.75;;;;;;;29.01;34.38;99872.13;5049484;28;20048;-80
2023/10/28 11:01:57;;;;;;;16.55;2.50;;;;;;;29.01;34.06;99893.44;5031493;28;20045;-79
2023/10/28 11:04:25;;;;;;;13.05;2.97;;;;;;;28.80;34.18;99858.38;5050074;28;20431;-79
2023/10/28 11:06:51;;;;;;;7.68;2.80;;;;;;;29.00;34.26;99887.06;5049184;28;20091;-79
2023/10/28 11:09:17;;;;;;;19.52;2.50;;;;;;;29.06;33.63;99869.41;5049296;28;20401;-78
2023/10/28 11:11:42;;;;;;;6.30;2.50;;;;;;;29.12;33.78;99889.66;5049513;28;20035;-79
2023/10/28 11:14:08;;;;;;;16.75;2.90;;;;;;;28.96;33.59;99858.22;5048737;28;20021;-80
2023/10/28 11:16:34;;;;;;;8.98;2.03;;;;;;;29.12;33.55;99889.66;5046359;28;20021;-77
2023/10/28 11:19:04;;;;;;;7.32;2.13;;;;;;;29.01;33.35;99852.75;5049050;28;20052;-79
2023/10/28 11:21:32;;;;;;;8.85;2.58;;;;;;;29.36;33.13;99898.47;5048830;28;20084;-77
2023/10/28 11:23:59;;;;;;;8.00;2.85;;;;;;;29.31;33.06;99887.34;5048596;28;20060;-78